Time;durP1;ratioP1;P1;durP2;ratioP2;P2;SDS_P1;SDS_P2;PMS_P1;PMS_P2;Temp;Humidity;BMP_temperature;BMP_pressure;BME280_temperature;BME280_humidity;BME280_pressure;Samples;Min_cycle;Max_cycle;Signal;HPM_P1;HPM_P2
2021/03/25 00:01:28;;;;;;;60.27;28.47;;;6.40;78.30;;;;;;4939402;29;20411;-79
2021/03/25 00:03:55;;;;;;;59.53;27.70;;;6.40;79.30;;;;;;4946030;28;20372;-79
2021/03/25 00:06:22;;;;;;;58.33;28.25;;;6.40;77.70;;;;;;4942682;28;20404;-80
2021/03/25 00:08:47;;;;;;;56.47;27.60;;;6.40;77.50;;;;;;4940327;29;20383;-78
2021/03/25 00:11:13;;;;;;;56.83;28.10;;;6.40;78.00;;;;;;4941076;29;20872;-78
2021/03/25 00:13:40;;;;;;;63.17;28.27;;;6.30;78.30;;;;;;4937764;29;20392;-79
2021/03/25 00:16:06;;;;;;;66.25;31.90;;;6.20;79.60;;;;;;4938105;29;20403;-78
2021/03/25 00:18:32;;;;;;;65.80;28.63;;;6.20;81.30;;;;;;4935674;29;20888;-80
2021/03/25 00:20:58;;;;;;;59.40;28.55;;;6.20;82.80;;;;;;4936606;29;20478;-79
2021/03/25 00:23:24;;;;;;;60.40;27.37;;;6.20;83.00;;;;;;4936490;29;20491;-77
2021/03/25 00:25:50;;;;;;;52.97;26.50;;;6.20;81.60;;;;;;4939498;29;20384;-80
2021/03/25 00:28:16;;;;;;;62.88;28.05;;;6.40;81.70;;;;;;4937410;29;20438;-79
2021/03/25 00:30:43;;;;;;;53.72;26.38;;;6.70;76.70;;;;;;4939908;28;20407;-78
2021/03/25 00:33:11;;;;;;;58.60;26.60;;;6.90;72.50;;;;;;4939220;28;20415;-79
2021/03/25 00:35:38;;;;;;;56.88;27.15;;;6.80;72.50;;;;;;4939347;29;20483;-79
2021/03/25 00:38:05;;;;;;;51.22;25.92;;;6.60;75.00;;;;;;4943260;29;20438;-82
2021/03/25 00:40:30;;;;;;;56.35;26.90;;;6.60;78.60;;;;;;4941976;29;20411;-79
2021/03/25 00:42:56;;;;;;;55.70;25.60;;;6.80;75.20;;;;;;4945404;29;20379;-79
2021/03/25 00:45:30;;;;;;;53.65;26.98;;;6.70;75.80;;;;;;4944972;29;20427;-79
2021/03/25 00:47:56;;;;;;;56.85;27.80;;;6.60;77.00;;;;;;4949069;29;20387;-79
2021/03/25 00:50:32;;;;;;;55.10;26.52;;;6.40;77.00;;;;;;4948437;29;20391;-78
2021/03/25 00:52:58;;;;;;;60.17;27.90;;;6.30;79.30;;;;;;4943072;29;20463;-80
2021/03/25 00:55:25;;;;;;;56.22;27.40;;;6.10;82.00;;;;;;4940894;28;20487;-80
2021/03/25 00:57:51;;;;;;;61.17;27.38;;;6.00;84.00;;;;;;4940898;28;20396;-82
2021/03/25 01:00:24;;;;;;;55.57;26.37;;;6.50;81.80;;;;;;4940072;28;20464;-80
2021/03/25 01:02:50;;;;;;;56.05;28.00;;;6.80;74.50;;;;;;4939498;29;20888;-81
2021/03/25 01:05:17;;;;;;;56.10;26.92;;;6.40;75.70;;;;;;4938655;28;21176;-80
2021/03/25 01:07:42;;;;;;;58.67;27.55;;;6.10;80.10;;;;;;4948844;28;20407;-79
2021/03/25 01:10:19;;;;;;;57.08;26.92;;;6.10;83.80;;;;;;4949147;28;20427;-79
2021/03/25 01:12:45;;;;;;;53.40;25.33;;;6.20;82.40;;;;;;4946247;29;20421;-80
2021/03/25 01:15:11;;;;;;;57.80;27.03;;;6.10;81.40;;;;;;4947209;29;20462;-80
2021/03/25 01:17:44;;;;;;;51.38;25.95;;;5.90;82.70;;;;;;4951472;28;20399;-79
2021/03/25 01:20:33;;;;;;;56.05;25.65;;;5.80;84.10;;;;;;4948358;29;20420;-79
2021/03/25 01:23:00;;;;;;;53.08;26.70;;;5.80;85.10;;;;;;4940046;29;20407;-79
2021/03/25 01:25:29;;;;;;;56.80;26.40;;;5.70;85.80;;;;;;4949631;29;20392;-80
2021/03/25 01:28:00;;;;;;;53.05;26.63;;;5.70;86.60;;;;;;4940044;28;20433;-78
2021/03/25 01:30:28;;;;;;;54.63;25.73;;;5.70;87.70;;;;;;4919309;29;20404;-80
2021/03/25 01:32:55;;;;;;;51.25;25.83;;;5.80;86.00;;;;;;4922319;29;20425;-80
2021/03/25 01:35:20;;;;;;;55.80;27.30;;;5.80;84.90;;;;;;4935524;29;20574;-78
2021/03/25 01:37:48;;;;;;;56.93;25.70;;;5.80;85.40;;;;;;4955187;29;20431;-80
2021/03/25 01:40:16;;;;;;;54.97;26.80;;;5.90;85.20;;;;;;4955657;29;20463;-82
2021/03/25 01:42:42;;;;;;;62.10;28.42;;;5.90;85.00;;;;;;4956429;28;20407;-78
2021/03/25 01:45:30;;;;;;;70.20;28.67;;;5.90;84.30;;;;;;4946187;29;20392;-81
2021/03/25 01:47:57;;;;;;;62.40;28.05;;;5.80;84.00;;;;;;4954956;28;20391;-83
2021/03/25 01:50:23;;;;;;;66.18;29.30;;;5.80;84.70;;;;;;4951266;28;20508;-80
2021/03/25 01:53:08;;;;;;;62.08;28.60;;;5.80;85.40;;;;;;4938060;28;20617;-81
2021/03/25 01:55:47;;;;;;;57.15;27.65;;;5.80;85.30;;;;;;4950976;28;20427;-80
2021/03/25 01:58:37;;;;;;;58.90;28.27;;;5.80;85.20;;;;;;4957703;28;20409;-80
2021/03/25 02:01:13;;;;;;;58.55;28.65;;;5.90;85.20;;;;;;4956794;28;20408;-79
2021/03/25 02:04:03;;;;;;;66.80;28.97;;;6.00;84.50;;;;;;4943914;29;20399;-78
2021/03/25 02:06:37;;;;;;;63.08;29.42;;;6.00;83.50;;;;;;4938905;29;20400;-80
2021/03/25 02:09:06;;;;;;;56.97;27.95;;;6.10;83.50;;;;;;4952811;29;20423;-79
2021/03/25 02:11:48;;;;;;;60.45;29.40;;;6.20;83.70;;;;;;4949528;29;20459;-78
2021/03/25 02:14:23;;;;;;;52.15;26.85;;;6.40;81.80;;;;;;4927225;29;20433;-81
2021/03/25 02:17:00;;;;;;;62.13;28.33;;;6.50;80.50;;;;;;4940850;29;20411;-79
2021/03/25 02:19:51;;;;;;;63.85;27.73;;;6.50;79.50;;;;;;4951393;29;20424;-80
2021/03/25 02:22:23;;;;;;;61.00;28.40;;;6.50;78.60;;;;;;4961394;29;20386;-79
2021/03/25 02:25:02;;;;;;;59.40;30.42;;;6.60;78.90;;;;;;4953082;29;20392;-79
2021/03/25 02:27:47;;;;;;;71.43;30.20;;;6.70;77.40;;;;;;4949736;29;20422;-77
2021/03/25 02:30:20;;;;;;;71.53;31.15;;;6.90;73.40;;;;;;4949398;29;20492;-81
2021/03/25 02:32:51;;;;;;;66.10;31.48;;;7.10;70.30;;;;;;4946818;28;20392;-81
2021/03/25 02:35:37;;;;;;;66.25;30.08;;;7.10;70.20;;;;;;4951684;29;20380;-79
2021/03/25 02:38:05;;;;;;;60.15;30.38;;;7.20;67.90;;;;;;4947543;29;20397;-79
2021/03/25 02:40:35;;;;;;;60.83;29.33;;;7.30;68.10;;;;;;4945100;29;20439;-79
2021/03/25 02:43:06;;;;;;;64.22;30.83;;;7.30;67.90;;;;;;4951581;29;20392;-80
2021/03/25 02:45:37;;;;;;;68.15;30.52;;;7.30;67.60;;;;;;4946396;29;20417;-80
2021/03/25 02:48:10;;;;;;;61.97;30.30;;;7.30;67.10;;;;;;4953445;29;20398;-80
2021/03/25 02:51:00;;;;;;;68.07;31.05;;;7.40;67.00;;;;;;4949715;29;20394;-80
2021/03/25 02:53:34;;;;;;;68.78;29.88;;;7.30;67.60;;;;;;4949211;29;20410;-78
2021/03/25 02:56:24;;;;;;;61.80;28.83;;;7.40;66.80;;;;;;4935422;29;20426;-80
2021/03/25 02:59:14;;;;;;;61.63;29.77;;;7.60;65.50;;;;;;4929361;29;20483;-78
2021/03/25 03:01:44;;;;;;;65.20;30.23;;;7.60;64.30;;;;;;4936082;29;20896;-79
2021/03/25 03:04:20;;;;;;;62.55;30.02;;;7.70;63.30;;;;;;4936442;29;20388;-79
2021/03/25 03:06:52;;;;;;;64.85;29.13;;;7.70;63.50;;;;;;4942248;29;20877;-80
2021/03/25 03:09:26;;;;;;;63.60;28.92;;;7.70;63.70;;;;;;4943923;29;20390;-78
2021/03/25 03:11:54;;;;;;;60.80;28.35;;;7.90;62.20;;;;;;4944287;29;20412;-81
2021/03/25 03:14:29;;;;;;;61.72;28.45;;;7.90;60.80;;;;;;4941598;29;20402;-80
2021/03/25 03:17:06;;;;;;;54.33;27.25;;;8.10;59.70;;;;;;4936768;29;20967;-81
2021/03/25 03:19:37;;;;;;;62.08;28.50;;;8.20;58.10;;;;;;4940567;29;20420;-80
2021/03/25 03:22:06;;;;;;;65.85;29.25;;;7.70;62.00;;;;;;4941599;29;20396;-79
2021/03/25 03:24:33;;;;;;;60.40;28.35;;;7.60;64.90;;;;;;4943303;28;20399;-80
2021/03/25 03:27:15;;;;;;;55.28;27.77;;;7.50;65.90;;;;;;4939156;28;20388;-79
2021/03/25 03:29:43;;;;;;;56.38;27.38;;;7.70;66.10;;;;;;4936576;29;20404;-82
2021/03/25 03:32:26;;;;;;;59.60;27.92;;;7.70;65.20;;;;;;4941088;28;20399;-79
2021/03/25 03:34:59;;;;;;;63.13;28.27;;;7.70;64.00;;;;;;4938654;29;20395;-81
2021/03/25 03:37:35;;;;;;;55.22;28.05;;;7.90;61.20;;;;;;4935905;29;20465;-80
2021/03/25 03:42:44;;;;;;;61.07;28.40;;;7.60;64.00;;;;;;5100994;27;20979;-79
2021/03/25 03:45:15;;;;;;;54.78;27.77;;;7.50;65.80;;;;;;5093858;28;20469;-81
2021/03/25 03:47:43;;;;;;;61.20;27.80;;;7.60;65.90;;;;;;5096773;28;20401;-81
2021/03/25 03:50:14;;;;;;;57.67;28.95;;;7.60;64.60;;;;;;5095030;28;20388;-78
2021/03/25 03:52:42;;;;;;;58.50;27.17;;;7.50;67.40;;;;;;5079246;28;20409;-79
2021/03/25 03:55:12;;;;;;;54.80;26.65;;;7.70;65.00;;;;;;5082530;28;20380;-80
2021/03/25 03:57:49;;;;;;;57.20;27.60;;;7.90;62.80;;;;;;5083923;28;20401;-78
2021/03/25 04:00:30;;;;;;;54.90;27.88;;;7.70;61.70;;;;;;5083234;28;20388;-79
2021/03/25 04:03:14;;;;;;;57.88;28.45;;;7.40;66.10;;;;;;5083134;28;20381;-77
2021/03/25 04:05:44;;;;;;;62.47;28.60;;;7.30;68.60;;;;;;5083004;28;20460;-78
2021/03/25 04:08:25;;;;;;;59.33;27.52;;;7.20;69.80;;;;;;5085522;28;20394;-78
2021/03/25 04:11:18;;;;;;;59.35;28.98;;;7.20;70.40;;;;;;5085040;28;20385;-80
2021/03/25 04:13:49;;;;;;;67.80;29.52;;;7.30;68.80;;;;;;5093976;28;20413;-79
2021/03/25 04:16:19;;;;;;;55.03;27.45;;;7.20;68.90;;;;;;5107924;28;20379;-79
2021/03/25 04:18:56;;;;;;;60.40;27.23;;;7.50;67.90;;;;;;5108906;28;20430;-82
2021/03/25 04:21:50;;;;;;;55.30;25.88;;;7.70;65.00;;;;;;5114255;28;20492;-80
2021/03/25 04:24:22;;;;;;;52.85;26.25;;;8.30;57.60;;;;;;5132171;28;20412;-82
2021/03/25 04:27:12;;;;;;;47.42;25.65;;;8.30;58.20;;;;;;5131503;28;20385;-80
2021/03/25 04:30:16;;;;;;;58.17;28.07;;;8.10;59.70;;;;;;5118600;28;20393;-79
2021/03/25 04:32:44;;;;;;;61.92;28.02;;;7.50;65.20;;;;;;5103387;28;20408;-82
2021/03/25 04:35:11;;;;;;;54.60;27.33;;;7.40;68.70;;;;;;5095626;28;20426;-74
2021/03/25 04:37:37;;;;;;;55.97;26.53;;;7.30;72.40;;;;;;5088906;28;20379;-78
2021/03/25 04:40:09;;;;;;;63.28;29.05;;;7.80;66.70;;;;;;5089832;28;20391;-76
2021/03/25 04:42:38;;;;;;;53.42;27.95;;;7.60;66.90;;;;;;5108018;28;20413;-76
2021/03/25 04:45:27;;;;;;;62.28;30.13;;;7.60;67.10;;;;;;5108815;28;20373;-78
2021/03/25 04:47:57;;;;;;;54.67;28.33;;;7.40;68.70;;;;;;5105277;28;20387;-76
2021/03/25 04:50:44;;;;;;;58.08;29.08;;;7.20;70.30;;;;;;5088129;28;20412;-76
2021/03/25 04:53:26;;;;;;;64.32;28.55;;;7.10;72.00;;;;;;5080289;28;20512;-78
2021/03/25 04:55:52;;;;;;;64.75;28.50;;;7.00;73.60;;;;;;5082709;28;20383;-77
2021/03/25 04:58:25;;;;;;;60.78;27.75;;;7.00;74.90;;;;;;5093998;28;20446;-76
2021/03/25 05:00:51;;;;;;;58.42;28.17;;;7.30;71.00;;;;;;5094381;28;20411;-75
2021/03/25 05:03:22;;;;;;;61.97;29.48;;;7.10;72.20;;;;;;5080188;28;20392;-76
2021/03/25 05:05:48;;;;;;;66.25;28.65;;;7.00;74.30;;;;;;5078254;28;20380;-76
2021/03/25 05:08:28;;;;;;;56.78;28.23;;;7.00;74.90;;;;;;5078438;28;20384;-76
2021/03/25 05:11:09;;;;;;;59.60;28.05;;;7.10;73.90;;;;;;5077386;28;20852;-77
2021/03/25 05:13:38;;;;;;;64.28;29.98;;;7.10;74.30;;;;;;5078791;28;20392;-76
2021/03/25 05:16:25;;;;;;;54.83;27.55;;;7.10;75.00;;;;;;5076629;28;20928;-76
2021/03/25 05:19:09;;;;;;;60.03;29.35;;;7.00;75.60;;;;;;5076427;28;20415;-75
2021/03/25 05:22:08;;;;;;;56.65;27.23;;;7.10;74.80;;;;;;5076118;28;20399;-76
2021/03/25 05:24:59;;;;;;;57.13;28.98;;;7.10;74.60;;;;;;5074983;28;20454;-76
2021/03/25 05:27:37;;;;;;;58.75;29.27;;;7.20;73.70;;;;;;5073838;28;20380;-77
2021/03/25 05:30:06;;;;;;;52.30;27.33;;;7.10;75.10;;;;;;5076235;28;20542;-76
2021/03/25 05:32:36;;;;;;;63.13;28.35;;;7.10;77.10;;;;;;5075316;28;20389;-77
2021/03/25 05:35:07;;;;;;;63.60;29.35;;;7.20;73.70;;;;;;5074615;28;20781;-75
2021/03/25 05:37:33;;;;;;;57.55;27.70;;;7.40;74.40;;;;;;5074482;28;20718;-75
2021/03/25 05:40:00;;;;;;;60.28;29.40;;;7.30;72.10;;;;;;5074423;28;20399;-75
2021/03/25 05:42:28;;;;;;;54.72;27.02;;;7.20;74.30;;;;;;5075505;28;20419;-75
2021/03/25 05:45:14;;;;;;;60.53;27.13;;;7.30;74.20;;;;;;5077195;28;20396;-76
2021/03/25 05:47:55;;;;;;;56.63;27.98;;;7.50;72.60;;;;;;5066021;28;20422;-77
2021/03/25 05:51:08;;;;;;;51.53;27.55;;;7.40;71.60;;;;;;5073911;28;20772;-76
2021/03/25 05:53:42;;;;;;;58.33;27.52;;;7.60;69.70;;;;;;5063457;28;20402;-77
2021/03/25 05:56:39;;;;;;;57.10;26.75;;;7.60;69.60;;;;;;5076975;28;20414;-77
2021/03/25 05:59:15;;;;;;;55.65;27.13;;;7.60;69.40;;;;;;5072628;28;20409;-78
2021/03/25 06:02:02;;;;;;;59.80;28.10;;;7.70;69.20;;;;;;5076199;28;20795;-76
2021/03/25 06:04:33;;;;;;;58.28;27.88;;;7.70;67.90;;;;;;5074943;28;20458;-76
2021/03/25 06:07:18;;;;;;;54.15;27.17;;;7.90;66.30;;;;;;5073803;28;20384;-77
2021/03/25 06:10:15;;;;;;;55.65;28.50;;;8.10;64.70;;;;;;5073166;28;20858;-77
2021/03/25 06:13:02;;;;;;;67.15;32.10;;;8.60;60.10;;;;;;5072960;28;20464;-76
2021/03/25 06:15:47;;;;;;;83.40;40.17;;;8.30;63.10;;;;;;5083979;28;20403;-77
2021/03/25 06:18:47;;;;;;;88.03;42.83;;;8.20;64.10;;;;;;5092897;28;20384;-77
2021/03/25 06:21:22;;;;;;;94.17;43.80;;;8.00;66.80;;;;;;5096675;28;20903;-77
2021/03/25 06:24:29;;;;;;;91.17;44.40;;;7.90;68.60;;;;;;5113564;28;20412;-76
2021/03/25 06:27:09;;;;;;;87.85;45.53;;;7.80;68.70;;;;;;5112900;28;20410;-77
2021/03/25 06:29:43;;;;;;;93.22;45.50;;;8.10;66.90;;;;;;5095950;28;20517;-77
2021/03/25 06:32:09;;;;;;;89.30;44.45;;;8.40;63.40;;;;;;5073390;28;20369;-76
2021/03/25 06:34:47;;;;;;;111.00;58.20;;;8.50;61.60;;;;;;5074958;28;20560;-78
2021/03/25 06:37:32;;;;;;;98.32;46.10;;;8.40;63.40;;;;;;5072135;28;20491;-77
2021/03/25 06:40:07;;;;;;;98.57;46.83;;;8.40;64.10;;;;;;5071558;28;20530;-76
2021/03/25 06:42:55;;;;;;;95.53;45.85;;;8.30;64.50;;;;;;5073430;28;20419;-75
2021/03/25 06:45:35;;;;;;;103.65;49.80;;;8.50;64.50;;;;;;5072508;28;20858;-76
2021/03/25 06:48:18;;;;;;;95.63;47.17;;;8.70;61.90;;;;;;5074261;28;20438;-76
2021/03/25 06:50:50;;;;;;;86.68;42.30;;;9.20;56.80;;;;;;5073648;28;20391;-77
2021/03/25 06:53:31;;;;;;;94.65;45.17;;;9.60;51.90;;;;;;5071806;28;20387;-77
2021/03/25 06:56:09;;;;;;;95.47;44.50;;;9.70;50.00;;;;;;5074107;28;20417;-76
2021/03/25 06:58:46;;;;;;;86.55;43.28;;;9.70;49.30;;;;;;5085227;28;20639;-76
2021/03/25 07:01:27;;;;;;;91.70;43.40;;;9.60;51.90;;;;;;5087901;28;20407;-76
2021/03/25 07:03:57;;;;;;;89.70;43.20;;;9.60;51.80;;;;;;5083774;28;20386;-75
2021/03/25 07:06:27;;;;;;;98.18;43.60;;;9.90;50.00;;;;;;5085685;28;20472;-76
2021/03/25 07:08:54;;;;;;;90.57;43.28;;;9.90;49.00;;;;;;5084153;28;20384;-75
2021/03/25 07:11:21;;;;;;;142.05;80.32;;;10.00;48.90;;;;;;5089075;28;20461;-77
2021/03/25 07:13:55;;;;;;;94.80;45.70;;;9.90;48.50;;;;;;5086306;28;20399;-78
2021/03/25 07:16:22;;;;;;;92.80;43.40;;;10.10;46.90;;;;;;5081984;28;20441;-77
2021/03/25 07:18:59;;;;;;;88.75;44.60;;;10.30;46.00;;;;;;5084397;28;20430;-76
2021/03/25 07:21:30;;;;;;;103.22;45.83;;;10.40;46.20;;;;;;5089439;28;20461;-75
2021/03/25 07:23:58;;;;;;;95.53;43.03;;;10.50;45.90;;;;;;5125175;28;20380;-77
2021/03/25 07:26:38;;;;;;;93.13;43.90;;;10.60;45.10;;;;;;5123862;28;20381;-76
2021/03/25 07:29:10;;;;;;;92.50;46.00;;;10.70;44.20;;;;;;5079898;28;20494;-76
2021/03/25 07:31:40;;;;;;;97.95;47.30;;;10.60;46.20;;;;;;5075416;28;20389;-76
2021/03/25 07:34:06;;;;;;;102.35;47.22;;;10.60;44.10;;;;;;5076603;28;20469;-76
2021/03/25 07:36:37;;;;;;;112.55;48.20;;;10.40;45.10;;;;;;5074670;28;20384;-76
2021/03/25 07:39:06;;;;;;;99.05;49.72;;;10.00;48.70;;;;;;5071311;28;20396;-76
2021/03/25 07:41:33;;;;;;;220.88;103.82;;;10.30;48.20;;;;;;5071771;28;20408;-75
2021/03/25 07:44:27;;;;;;;98.75;46.72;;;10.80;51.20;;;;;;5072350;28;20478;-75
2021/03/25 07:46:56;;;;;;;300.23;158.20;;;11.70;41.70;;;;;;5075087;28;20493;-77
2021/03/25 07:49:25;;;;;;;109.93;57.38;;;12.00;44.70;;;;;;5075748;28;20815;-77
2021/03/25 07:51:56;;;;;;;195.27;103.13;;;12.20;35.10;;;;;;5074287;28;20387;-74
2021/03/25 07:54:41;;;;;;;151.95;79.93;;;12.40;39.00;;;;;;5072806;28;20492;-77
2021/03/25 07:57:11;;;;;;;111.53;55.40;;;12.20;35.80;;;;;;5095563;28;20396;-79
2021/03/25 07:59:52;;;;;;;111.88;54.53;;;12.10;35.80;;;;;;5112181;28;20385;-80
2021/03/25 08:02:26;;;;;;;104.25;54.75;;;11.50;39.30;;;;;;5112515;28;20397;-83
2021/03/25 08:04:52;;;;;;;108.30;53.80;;;11.40;39.30;;;;;;5098677;28;20397;-83
2021/03/25 08:07:19;;;;;;;106.35;53.63;;;11.10;40.80;;;;;;5099575;28;20388;-81
2021/03/25 08:09:51;;;;;;;102.65;50.90;;;11.90;36.80;;;;;;5091925;28;20384;-80
2021/03/25 08:12:36;;;;;;;117.85;57.35;;;12.20;35.50;;;;;;5086202;28;20437;-82
2021/03/25 08:15:29;;;;;;;105.80;52.90;;;11.70;38.00;;;;;;5080231;28;20380;-81
2021/03/25 08:18:13;;;;;;;119.47;57.20;;;12.50;33.90;;;;;;5079909;28;20383;-81
2021/03/25 08:20:52;;;;;;;113.32;56.17;;;12.40;33.50;;;;;;5083767;28;20424;-82
2021/03/25 08:23:33;;;;;;;108.25;55.35;;;12.80;31.40;;;;;;5077625;28;20380;-81
2021/03/25 08:26:16;;;;;;;112.55;53.90;;;12.70;31.90;;;;;;5076537;28;20384;-81
2021/03/25 08:28:54;;;;;;;110.97;56.30;;;12.90;30.90;;;;;;5093817;28;20490;-81
2021/03/25 08:31:33;;;;;;;109.97;54.67;;;13.00;30.80;;;;;;5105025;28;20440;-79
2021/03/25 08:34:20;;;;;;;115.15;56.55;;;12.80;32.90;;;;;;5084614;28;20718;-75
2021/03/25 08:37:07;;;;;;;104.13;53.23;;;12.70;32.10;;;;;;5080718;28;20478;-78
2021/03/25 08:39:57;;;;;;;111.00;53.45;;;13.50;28.20;;;;;;5084304;28;20391;-78
2021/03/25 08:42:41;;;;;;;106.20;54.47;;;13.90;26.00;;;;;;5094964;28;20402;-78
2021/03/25 08:45:29;;;;;;;106.45;54.25;;;13.80;26.20;;;;;;5088180;28;20400;-78
2021/03/25 08:48:09;;;;;;;113.20;53.90;;;13.30;28.70;;;;;;5097572;28;20414;-78
2021/03/25 08:50:43;;;;;;;109.40;54.20;;;13.30;28.40;;;;;;5098588;28;20385;-77
2021/03/25 08:53:28;;;;;;;104.95;52.90;;;13.40;28.20;;;;;;5089432;28;20389;-80
2021/03/25 08:55:58;;;;;;;106.25;52.10;;;13.30;29.10;;;;;;5090111;28;20388;-76
2021/03/25 08:58:36;;;;;;;106.88;53.88;;;13.40;28.60;;;;;;5085939;28;20394;-76
2021/03/25 09:01:06;;;;;;;109.97;52.50;;;13.10;30.70;;;;;;5080391;28;20405;-75
2021/03/25 09:03:43;;;;;;;109.45;54.05;;;12.90;30.70;;;;;;5085011;28;20399;-77
2021/03/25 09:06:20;;;;;;;117.32;54.70;;;12.70;30.10;;;;;;5073634;28;20392;-76
2021/03/25 09:08:48;;;;;;;95.28;50.63;;;12.80;30.00;;;;;;5073829;28;20752;-74
2021/03/25 09:11:16;;;;;;;110.90;54.70;;;13.40;26.50;;;;;;5074086;28;20448;-75
2021/03/25 09:13:47;;;;;;;105.28;53.67;;;13.30;26.80;;;;;;5073799;28;20424;-76
2021/03/25 09:16:25;;;;;;;112.00;53.17;;;13.60;26.30;;;;;;5075160;28;20535;-76
2021/03/25 09:18:52;;;;;;;105.78;54.67;;;13.60;26.40;;;;;;5076364;28;20793;-76
2021/03/25 09:21:27;;;;;;;109.32;54.42;;;13.40;27.80;;;;;;5090394;28;20415;-74
2021/03/25 09:23:59;;;;;;;114.03;55.70;;;13.10;29.70;;;;;;5087016;28;20402;-75
2021/03/25 09:26:24;;;;;;;109.95;57.95;;;13.40;28.70;;;;;;5073739;28;20402;-75
2021/03/25 09:28:53;;;;;;;110.88;56.45;;;13.30;28.50;;;;;;5087808;28;20390;-76
2021/03/25 09:31:21;;;;;;;116.50;57.85;;;13.20;30.00;;;;;;5084113;28;20852;-75
2021/03/25 09:33:46;;;;;;;106.80;55.47;;;13.20;30.20;;;;;;5073227;28;20871;-76
2021/03/25 09:36:18;;;;;;;113.40;59.72;;;13.30;29.60;;;;;;5073483;28;20379;-75
2021/03/25 09:38:45;;;;;;;117.93;60.25;;;13.40;28.40;;;;;;5073276;28;20454;-76
2021/03/25 09:41:36;;;;;;;125.90;60.00;;;13.00;31.30;;;;;;5073111;28;20407;-74
2021/03/25 09:44:08;;;;;;;122.93;58.83;;;13.00;31.30;;;;;;5095975;28;20389;-76
2021/03/25 09:46:58;;;;;;;109.27;57.60;;;13.10;31.00;;;;;;5095438;28;20594;-77
2021/03/25 09:50:01;;;;;;;110.63;56.75;;;13.20;30.10;;;;;;5076650;28;20745;-81
2021/03/25 09:52:31;;;;;;;100.25;51.45;;;13.10;31.10;;;;;;5089755;28;20398;-81
2021/03/25 09:55:00;;;;;;;94.80;48.70;;;13.30;30.50;;;;;;5089572;28;20391;-76
2021/03/25 09:57:32;;;;;;;105.18;51.17;;;13.40;30.70;;;;;;5110313;28;20389;-77
2021/03/25 09:59:59;;;;;;;95.78;51.13;;;13.50;30.30;;;;;;5101411;28;20382;-77
2021/03/25 10:02:48;;;;;;;96.65;50.00;;;13.30;32.10;;;;;;5092691;28;20566;-77
2021/03/25 10:05:20;;;;;;;92.50;50.55;;;13.40;32.20;;;;;;5096578;28;20390;-76
2021/03/25 10:07:50;;;;;;;95.88;49.28;;;13.20;33.60;;;;;;5090913;28;20395;-77
2021/03/25 10:10:31;;;;;;;93.35;46.63;;;13.20;33.70;;;;;;5085278;28;20387;-77
2021/03/25 10:13:06;;;;;;;89.38;46.80;;;13.20;33.20;;;;;;5086166;28;20372;-80
2021/03/25 10:15:39;;;;;;;81.68;46.00;;;13.40;33.10;;;;;;5091194;28;20380;-80
2021/03/25 10:18:17;;;;;;;88.43;48.08;;;13.80;30.60;;;;;;5107605;28;20397;-82
2021/03/25 10:21:06;;;;;;;98.47;49.17;;;13.80;30.40;;;;;;5097477;28;20390;-79
2021/03/25 10:23:42;;;;;;;94.15;49.65;;;13.70;31.70;;;;;;5101869;28;20375;-81
2021/03/25 10:26:11;;;;;;;91.90;49.92;;;13.70;32.60;;;;;;5111646;28;20370;-81
2021/03/25 10:28:45;;;;;;;96.20;50.30;;;13.60;32.80;;;;;;5110725;28;20409;-81
2021/03/25 10:31:27;;;;;;;99.57;49.53;;;13.50;34.10;;;;;;5107089;28;20404;-81
2021/03/25 10:34:02;;;;;;;83.03;45.13;;;13.80;33.20;;;;;;5109577;28;20406;-81
2021/03/25 10:36:39;;;;;;;74.05;42.75;;;13.90;31.20;;;;;;5109015;28;20406;-81
2021/03/25 10:39:11;;;;;;;71.53;39.15;;;13.60;32.10;;;;;;5102804;28;20378;-80
2021/03/25 10:41:38;;;;;;;68.05;38.20;;;13.40;32.80;;;;;;5108164;28;20485;-80
2021/03/25 10:44:18;;;;;;;73.27;38.20;;;13.40;33.20;;;;;;5105762;28;20489;-79
2021/03/25 10:46:44;;;;;;;76.53;38.50;;;13.30;33.70;;;;;;5106621;28;20913;-80
2021/03/25 10:49:21;;;;;;;74.70;38.03;;;13.30;33.20;;;;;;5105141;28;20419;-80
2021/03/25 10:51:48;;;;;;;66.57;38.60;;;13.30;33.40;;;;;;5102815;28;20393;-80
2021/03/25 10:54:23;;;;;;;69.93;38.58;;;13.50;31.30;;;;;;5104194;28;20389;-78
2021/03/25 10:57:18;;;;;;;70.35;38.80;;;13.50;32.90;;;;;;5107786;28;20389;-79
2021/03/25 10:59:53;;;;;;;75.50;37.17;;;13.60;33.30;;;;;;5084215;28;20514;-80
2021/03/25 11:02:23;;;;;;;80.35;40.28;;;13.80;31.10;;;;;;5090769;28;20467;-80
2021/03/25 11:05:01;;;;;;;72.10;38.80;;;13.80;31.10;;;;;;5076156;28;20752;-80
2021/03/25 11:07:27;;;;;;;70.40;37.92;;;13.90;30.50;;;;;;5075676;28;20795;-82
2021/03/25 11:10:00;;;;;;;64.53;37.47;;;14.00;30.80;;;;;;5087219;28;20442;-81
2021/03/25 11:12:30;;;;;;;69.55;38.80;;;14.20;28.40;;;;;;5082033;28;20391;-79
2021/03/25 11:14:59;;;;;;;71.87;38.30;;;14.30;28.60;;;;;;5083021;28;20461;-78
2021/03/25 11:17:36;;;;;;;72.28;40.20;;;14.10;29.70;;;;;;5086987;28;20409;-81
2021/03/25 11:20:13;;;;;;;81.53;41.20;;;14.00;29.80;;;;;;5085978;28;20387;-79
2021/03/25 11:22:39;;;;;;;74.82;40.45;;;14.10;29.30;;;;;;5100801;28;20473;-81
2021/03/25 11:25:11;;;;;;;59.85;36.55;;;14.10;28.90;;;;;;5097959;28;20520;-81
2021/03/25 11:27:37;;;;;;;68.97;35.90;;;14.00;28.40;;;;;;5093009;28;20391;-79
2021/03/25 11:30:42;;;;;;;69.35;34.53;;;14.30;27.70;;;;;;5084600;28;20386;-81
2021/03/25 11:33:29;;;;;;;59.93;35.17;;;14.60;25.70;;;;;;5077248;28;20942;-80
2021/03/25 11:35:57;;;;;;;65.90;35.13;;;14.40;26.40;;;;;;5076129;28;20385;-81
2021/03/25 11:38:25;;;;;;;67.93;36.20;;;14.20;27.40;;;;;;5076079;28;20413;-80
2021/03/25 11:41:01;;;;;;;65.78;35.10;;;14.20;27.90;;;;;;5076946;28;20408;-81
2021/03/25 11:43:51;;;;;;;60.47;32.90;;;14.20;28.30;;;;;;5078356;28;20410;-79
2021/03/25 11:46:27;;;;;;;60.25;33.47;;;14.40;26.50;;;;;;5079421;28;20383;-78
2021/03/25 11:49:34;;;;;;;59.03;32.40;;;14.30;27.60;;;;;;5085899;28;20620;-80
2021/03/25 11:52:03;;;;;;;56.65;33.70;;;14.40;26.50;;;;;;5099245;28;20445;-80
2021/03/25 11:54:35;;;;;;;66.13;34.33;;;14.60;26.40;;;;;;5096001;28;20398;-79
2021/03/25 11:57:03;;;;;;;53.65;30.80;;;14.80;26.00;;;;;;5093513;28;20386;-79
2021/03/25 11:59:36;;;;;;;58.10;33.45;;;14.70;24.40;;;;;;5095730;28;20465;-78
2021/03/25 12:02:22;;;;;;;55.58;31.23;;;14.70;25.80;;;;;;5078838;28;20415;-80
2021/03/25 12:04:50;;;;;;;56.60;30.65;;;14.80;23.90;;;;;;5087293;28;20391;-81
2021/03/25 12:07:23;;;;;;;52.40;29.40;;;15.00;23.40;;;;;;5087121;28;20390;-79
2021/03/25 12:10:10;;;;;;;56.27;29.07;;;14.90;23.80;;;;;;5081933;28;20423;-81
2021/03/25 12:12:36;;;;;;;58.40;30.80;;;14.60;24.10;;;;;;5085406;28;20371;-80
2021/03/25 12:15:01;;;;;;;49.07;28.33;;;14.50;25.00;;;;;;5089172;28;20406;-77
2021/03/25 12:17:27;;;;;;;51.13;27.10;;;14.60;25.50;;;;;;5091766;28;20386;-79
2021/03/25 12:19:53;;;;;;;56.90;29.48;;;14.50;25.00;;;;;;5097221;28;20997;-77
2021/03/25 12:22:25;;;;;;;48.97;25.90;;;14.60;25.20;;;;;;5101621;28;20407;-75
2021/03/25 12:24:52;;;;;;;47.72;27.00;;;14.70;24.70;;;;;;5085006;28;20386;-77
2021/03/25 12:27:21;;;;;;;47.67;26.88;;;14.60;24.60;;;;;;5097252;28;20378;-77
2021/03/25 12:29:47;;;;;;;49.25;28.48;;;14.90;24.20;;;;;;5086658;28;20395;-77
2021/03/25 12:32:13;;;;;;;54.20;29.88;;;15.10;23.40;;;;;;5096549;28;20382;-78
2021/03/25 12:34:39;;;;;;;49.92;29.60;;;14.90;23.90;;;;;;5094364;28;20421;-76
2021/03/25 12:37:05;;;;;;;52.33;27.77;;;14.90;24.60;;;;;;5089132;28;20476;-78
2021/03/25 12:39:31;;;;;;;45.95;26.40;;;15.00;23.90;;;;;;5090765;28;20482;-77
2021/03/25 12:41:58;;;;;;;43.80;24.92;;;15.20;22.20;;;;;;5079663;28;20411;-77
2021/03/25 12:44:24;;;;;;;43.47;24.55;;;15.30;22.60;;;;;;5085242;28;20387;-77
2021/03/25 12:46:49;;;;;;;43.42;23.95;;;15.50;21.50;;;;;;5075568;28;20441;-77
2021/03/25 12:49:15;;;;;;;44.90;22.70;;;15.70;21.50;;;;;;5076767;28;20474;-77
2021/03/25 12:51:41;;;;;;;29.40;19.15;;;16.00;21.30;;;;;;5096345;28;20387;-80
2021/03/25 12:54:07;;;;;;;39.58;22.90;;;16.10;18.80;;;;;;5086792;28;20380;-77
2021/03/25 12:56:35;;;;;;;42.13;22.53;;;16.30;18.60;;;;;;5085251;28;20959;-78
2021/03/25 12:59:09;;;;;;;32.80;19.83;;;16.50;18.40;;;;;;5091347;28;20408;-77
2021/03/25 13:01:35;;;;;;;41.00;19.95;;;16.60;18.40;;;;;;5103035;28;20429;-78
2021/03/25 13:04:02;;;;;;;35.60;20.58;;;16.80;17.40;;;;;;5085165;28;20387;-80
2021/03/25 13:06:28;;;;;;;35.42;20.90;;;16.80;16.70;;;;;;5092493;28;20384;-77
2021/03/25 13:08:53;;;;;;;33.43;20.47;;;16.50;17.70;;;;;;5080517;28;20777;-76
2021/03/25 13:11:25;;;;;;;37.37;21.00;;;16.50;18.00;;;;;;5088717;28;20400;-76